createdAt,value
2017-07-31T00:00:40.724Z,0
2017-07-31T00:01:51.465Z,0
2017-07-31T00:03:01.934Z,0
2017-07-31T00:12:41.980Z,0
2017-07-31T00:14:11.908Z,0
2017-07-31T00:15:22.398Z,0
2017-07-31T00:16:32.863Z,0
2017-07-31T00:17:43.365Z,0
2017-07-31T00:18:53.861Z,0
2017-07-31T00:20:04.475Z,0
2017-07-31T00:21:14.961Z,0
2017-07-31T00:22:25.451Z,0
2017-07-31T00:23:36.268Z,0
2017-07-31T00:24:46.870Z,0
2017-07-31T00:25:57.040Z,0
2017-07-31T00:27:07.500Z,0
2017-07-31T00:28:18.179Z,0
2017-07-31T00:29:28.898Z,0
2017-07-31T00:30:39.476Z,0
2017-07-31T00:31:49.660Z,0
2017-07-31T00:33:00.118Z,0
2017-07-31T00:34:10.581Z,0
2017-07-31T00:35:20.868Z,0
2017-07-31T00:36:31.331Z,0
2017-07-31T00:37:41.814Z,0
2017-07-31T00:38:51.973Z,0
2017-07-31T00:40:02.460Z,0
2017-07-31T00:41:13.181Z,0
2017-07-31T00:42:23.642Z,0
2017-07-31T00:43:34.135Z,0
2017-07-31T00:44:44.682Z,0
2017-07-31T00:45:55.295Z,0
2017-07-31T00:47:06.075Z,0
2017-07-31T00:48:16.105Z,0
2017-07-31T00:49:26.614Z,0
2017-07-31T00:50:36.667Z,0
2017-07-31T00:51:47.163Z,0
2017-07-31T00:52:57.874Z,0
2017-07-31T00:54:08.378Z,0
2017-07-31T00:55:18.967Z,0
2017-07-31T00:56:29.426Z,0
2017-07-31T00:57:40.078Z,0
2017-07-31T00:58:50.794Z,0
2017-07-31T01:00:01.424Z,0
2017-07-31T01:01:11.951Z,0
2017-07-31T01:02:22.416Z,0
2017-07-31T01:03:33.128Z,0
2017-07-31T01:04:43.852Z,0
2017-07-31T01:05:54.335Z,0
2017-07-31T01:07:04.846Z,0
2017-07-31T01:08:15.380Z,0
2017-07-31T01:09:26.073Z,0
2017-07-31T01:10:36.851Z,0
2017-07-31T01:11:47.313Z,0
2017-07-31T01:12:57.351Z,0
2017-07-31T01:14:07.822Z,0
2017-07-31T01:15:18.310Z,0
2017-07-31T01:16:29.033Z,0
2017-07-31T01:17:39.731Z,0
2017-07-31T01:18:50.245Z,0
2017-07-31T01:20:00.709Z,0
2017-07-31T01:21:11.168Z,0
2017-07-31T01:22:21.885Z,0
2017-07-31T01:23:32.613Z,0
2017-07-31T01:24:42.787Z,0
2017-07-31T01:25:53.237Z,0
2017-07-31T01:27:03.733Z,0
2017-07-31T01:28:14.464Z,0
2017-07-31T01:29:24.561Z,0
2017-07-31T01:30:35.019Z,0
2017-07-31T01:31:45.532Z,0
2017-07-31T01:32:55.834Z,0
2017-07-31T01:34:06.551Z,0
2017-07-31T01:35:17.030Z,0
2017-07-31T01:36:27.516Z,0
2017-07-31T01:37:37.986Z,0
2017-07-31T01:38:48.499Z,0
2017-07-31T01:39:59.225Z,0
2017-07-31T01:41:09.349Z,0
2017-07-31T01:42:19.846Z,0
2017-07-31T01:43:30.435Z,0
2017-07-31T01:44:40.990Z,0
2017-07-31T01:45:51.404Z,0
2017-07-31T01:47:01.918Z,0
2017-07-31T01:48:12.732Z,0
2017-07-31T01:49:23.309Z,0
2017-07-31T01:50:33.797Z,0
2017-07-31T01:51:44.507Z,0
2017-07-31T01:52:55.004Z,0
2017-07-31T01:54:05.491Z,0
2017-07-31T01:55:15.963Z,0
2017-07-31T01:56:26.458Z,0
2017-07-31T01:57:37.423Z,0
2017-07-31T01:58:47.860Z,0
2017-07-31T01:59:57.979Z,0
2017-07-31T02:01:08.437Z,0
2017-07-31T02:02:18.899Z,0
2017-07-31T02:03:29.648Z,0
2017-07-31T02:04:40.099Z,0
2017-07-31T02:05:50.586Z,0
2017-07-31T02:07:01.054Z,0
2017-07-31T02:08:11.532Z,0
2017-07-31T02:09:22.468Z,0
2017-07-31T02:10:32.918Z,0
2017-07-31T02:11:43.510Z,0
2017-07-31T02:12:53.974Z,0
2017-07-31T02:14:04.465Z,0
2017-07-31T02:15:14.974Z,0
2017-07-31T02:16:25.442Z,0
2017-07-31T02:17:36.050Z,0
2017-07-31T02:18:46.578Z,0
2017-07-31T02:19:57.157Z,0
2017-07-31T02:21:07.896Z,0
2017-07-31T02:22:18.462Z,0
2017-07-31T02:23:28.963Z,0
2017-07-31T02:24:39.103Z,0
2017-07-31T02:25:49.572Z,0
2017-07-31T02:26:59.909Z,0
2017-07-31T02:28:10.367Z,0
2017-07-31T02:29:20.874Z,0
2017-07-31T02:30:31.386Z,0
2017-07-31T02:31:41.849Z,0
2017-07-31T02:32:52.893Z,0
2017-07-31T02:34:03.377Z,0
2017-07-31T02:35:13.881Z,0
2017-07-31T02:36:24.400Z,0
2017-07-31T02:37:34.864Z,0
2017-07-31T02:38:45.594Z,0
2017-07-31T02:39:56.075Z,0
2017-07-31T02:41:06.525Z,0
2017-07-31T02:42:17.008Z,0
2017-07-31T02:43:27.483Z,0
2017-07-31T02:44:38.261Z,0
2017-07-31T02:45:48.828Z,0
2017-07-31T02:46:59.358Z,0
2017-07-31T02:48:09.826Z,0
2017-07-31T02:49:20.411Z,0
2017-07-31T02:50:31.139Z,0
2017-07-31T02:51:41.631Z,0
2017-07-31T02:52:52.141Z,0
2017-07-31T02:54:02.342Z,0
2017-07-31T02:55:12.800Z,0
2017-07-31T02:56:22.872Z,0
2017-07-31T02:57:33.359Z,0
2017-07-31T02:58:43.821Z,0
2017-07-31T02:59:54.400Z,0
2017-07-31T03:01:04.886Z,0
2017-07-31T03:02:15.646Z,4
2017-07-31T03:03:26.094Z,4
2017-07-31T03:04:36.561Z,4
2017-07-31T03:05:47.046Z,4
2017-07-31T03:06:57.529Z,4
2017-07-31T03:08:08.218Z,8
2017-07-31T03:09:18.680Z,4
2017-07-31T03:10:29.134Z,8
2017-07-31T03:11:39.635Z,8
2017-07-31T03:12:50.116Z,12
2017-07-31T03:14:00.938Z,12
2017-07-31T03:15:11.418Z,16
2017-07-31T03:16:21.891Z,16
2017-07-31T03:17:32.349Z,20
2017-07-31T03:18:42.825Z,24
2017-07-31T03:19:53.230Z,24
2017-07-31T03:21:03.890Z,24
2017-07-31T03:22:14.425Z,32
2017-07-31T03:23:25.006Z,36
2017-07-31T03:24:35.486Z,40
2017-07-31T03:25:45.768Z,44
2017-07-31T03:26:56.352Z,48
2017-07-31T03:28:06.352Z,56
2017-07-31T03:29:17.087Z,64
2017-07-31T03:30:27.565Z,76
2017-07-31T03:31:38.284Z,80
2017-07-31T03:32:48.307Z,84
2017-07-31T03:33:58.926Z,88
2017-07-31T03:35:09.397Z,84
2017-07-31T03:36:19.855Z,76
2017-07-31T03:37:30.629Z,76
2017-07-31T03:38:41.086Z,72
2017-07-31T03:39:51.564Z,68
2017-07-31T03:41:02.050Z,80
2017-07-31T03:42:12.588Z,100
2017-07-31T03:43:54.842Z,164
2017-07-31T03:45:05.015Z,204
2017-07-31T03:46:15.703Z,228
2017-07-31T03:47:26.174Z,244
2017-07-31T03:48:36.884Z,264
2017-07-31T03:49:47.030Z,284
2017-07-31T03:50:57.561Z,316
2017-07-31T03:52:08.171Z,360
2017-07-31T03:53:18.667Z,384
2017-07-31T03:54:29.372Z,412
2017-07-31T03:55:39.098Z,440
2017-07-31T03:56:49.628Z,476
2017-07-31T03:58:00.139Z,516
2017-07-31T03:59:10.657Z,556
2017-07-31T04:00:21.430Z,592
2017-07-31T04:01:31.897Z,612
2017-07-31T04:02:42.070Z,636
2017-07-31T04:03:52.214Z,660
2017-07-31T04:05:02.720Z,688
2017-07-31T04:06:13.496Z,712
2017-07-31T04:07:23.709Z,744
2017-07-31T04:08:34.164Z,784
2017-07-31T04:09:44.633Z,832
2017-07-31T04:10:55.087Z,856
2017-07-31T04:12:05.494Z,812
2017-07-31T04:13:15.976Z,832
2017-07-31T04:14:26.443Z,896
2017-07-31T04:15:36.896Z,964
2017-07-31T04:16:47.460Z,1056
2017-07-31T04:17:58.196Z,1196
2017-07-31T04:19:08.692Z,1372
2017-07-31T04:20:19.176Z,1452
2017-07-31T04:21:29.735Z,1416
2017-07-31T04:22:40.217Z,1452
2017-07-31T04:23:50.950Z,1512
2017-07-31T04:25:01.493Z,1560
2017-07-31T04:26:12.006Z,1624
2017-07-31T04:27:22.523Z,1688
2017-07-31T04:28:32.670Z,1784
2017-07-31T04:29:43.450Z,1896
2017-07-31T04:30:53.939Z,1992
2017-07-31T04:32:04.425Z,2052
2017-07-31T04:33:14.935Z,2060
2017-07-31T04:34:25.394Z,2312
2017-07-31T04:35:35.949Z,2880
2017-07-31T04:36:46.548Z,3156
2017-07-31T04:37:56.991Z,3328
2017-07-31T04:39:07.479Z,3180
2017-07-31T04:40:17.925Z,3084
2017-07-31T04:41:28.651Z,3016
2017-07-31T04:42:39.170Z,2936
2017-07-31T04:43:49.638Z,2896
2017-07-31T04:45:00.158Z,2796
2017-07-31T04:46:10.642Z,2624
2017-07-31T04:47:21.486Z,2704
2017-07-31T04:48:31.638Z,2736
2017-07-31T04:49:42.126Z,2708
2017-07-31T04:50:52.576Z,2792
2017-07-31T04:52:03.038Z,2924
2017-07-31T04:53:13.286Z,2976
2017-07-31T04:54:23.538Z,3092
2017-07-31T04:55:34.058Z,3256
2017-07-31T04:56:44.774Z,3292
2017-07-31T04:57:55.216Z,3488
2017-07-31T04:59:07.156Z,3752
2017-07-31T05:00:17.619Z,3864
2017-07-31T05:01:28.097Z,3824
2017-07-31T05:02:38.613Z,3884
2017-07-31T05:03:49.205Z,4172
2017-07-31T05:05:00.116Z,4124
2017-07-31T05:06:10.285Z,4220
2017-07-31T05:07:20.910Z,4036
2017-07-31T05:08:31.411Z,4136
2017-07-31T05:09:41.900Z,4020
2017-07-31T05:10:52.657Z,3688
2017-07-31T05:12:03.468Z,3536
2017-07-31T05:13:13.945Z,3404
2017-07-31T05:14:24.450Z,3376
2017-07-31T05:15:34.948Z,3420
2017-07-31T05:16:45.735Z,3536
2017-07-31T05:17:56.214Z,3740
2017-07-31T05:19:06.684Z,3808
2017-07-31T05:20:17.236Z,3888
2017-07-31T05:21:27.699Z,3996
2017-07-31T05:22:38.602Z,4012
2017-07-31T05:23:49.083Z,4028
2017-07-31T05:24:59.575Z,4092
2017-07-31T05:26:10.047Z,4164
2017-07-31T05:27:20.529Z,4192
2017-07-31T05:28:31.407Z,4172
2017-07-31T05:29:41.883Z,4112
2017-07-31T05:30:52.408Z,4236
2017-07-31T05:32:02.914Z,4188
2017-07-31T05:33:13.388Z,3968
2017-07-31T05:34:24.107Z,3788
2017-07-31T05:35:34.582Z,3612
2017-07-31T05:36:45.071Z,3620
2017-07-31T05:37:55.628Z,3724
2017-07-31T05:39:06.089Z,3824
2017-07-31T05:40:16.777Z,3988
2017-07-31T05:41:27.256Z,3996
2017-07-31T05:42:37.747Z,4200
2017-07-31T05:43:48.198Z,3876
2017-07-31T05:44:58.748Z,3412
2017-07-31T05:46:09.233Z,3260
2017-07-31T05:47:19.710Z,3332
2017-07-31T05:48:30.341Z,3392
2017-07-31T05:49:40.830Z,3656
2017-07-31T05:50:51.309Z,3704
2017-07-31T05:52:01.786Z,3504
2017-07-31T05:53:12.266Z,3556
2017-07-31T05:54:22.404Z,3800
2017-07-31T05:55:32.909Z,4284
2017-07-31T05:56:43.624Z,4392
2017-07-31T05:57:54.082Z,4552
2017-07-31T05:59:04.559Z,4500
2017-07-31T06:00:15.255Z,4500
2017-07-31T06:01:26.684Z,4508
2017-07-31T06:02:37.177Z,4552
2017-07-31T06:03:47.726Z,4628
2017-07-31T06:04:58.272Z,4620
2017-07-31T06:06:08.752Z,4636
2017-07-31T06:07:19.217Z,4636
2017-07-31T06:08:29.714Z,4568
2017-07-31T06:09:40.219Z,4484
2017-07-31T06:10:50.681Z,4244
2017-07-31T06:12:01.202Z,4232
2017-07-31T06:13:11.700Z,4192
2017-07-31T06:14:22.402Z,4128
2017-07-31T06:15:32.891Z,4252
2017-07-31T06:16:43.497Z,4168
2017-07-31T06:17:53.947Z,4316
2017-07-31T06:19:04.399Z,4376
2017-07-31T06:20:15.012Z,4384
2017-07-31T06:21:25.551Z,4432
2017-07-31T06:22:36.019Z,4464
2017-07-31T06:23:46.171Z,4496
2017-07-31T06:24:56.690Z,4504
2017-07-31T06:26:06.914Z,4520
2017-07-31T06:27:17.452Z,4544
2017-07-31T06:28:28.400Z,4548
2017-07-31T06:29:38.872Z,4576
2017-07-31T06:30:49.348Z,4556
2017-07-31T06:31:59.832Z,4704
2017-07-31T06:33:10.378Z,4744
2017-07-31T06:34:20.929Z,4780
2017-07-31T06:35:31.425Z,4728
2017-07-31T06:36:41.900Z,4656
2017-07-31T06:37:52.081Z,4540
2017-07-31T06:39:02.551Z,4372
2017-07-31T06:40:13.075Z,4536
2017-07-31T06:41:23.530Z,4836
2017-07-31T06:42:33.999Z,4876
2017-07-31T06:43:44.464Z,4920
2017-07-31T06:44:54.936Z,4944
2017-07-31T06:46:05.429Z,4948
2017-07-31T06:47:15.886Z,4940
2017-07-31T06:48:26.046Z,4968
2017-07-31T06:49:36.523Z,4960
2017-07-31T06:50:47.014Z,4984
2017-07-31T06:51:57.536Z,5192
2017-07-31T06:53:07.992Z,5252
2017-07-31T06:54:18.494Z,5296
2017-07-31T06:55:28.942Z,5080
2017-07-31T06:56:39.593Z,5048
2017-07-31T06:57:50.147Z,4904
2017-07-31T06:59:00.596Z,5100
2017-07-31T07:00:11.087Z,5080
2017-07-31T07:01:21.637Z,5124
2017-07-31T07:02:32.153Z,5500
2017-07-31T07:03:42.671Z,5720
2017-07-31T07:04:53.162Z,5884
2017-07-31T07:06:03.693Z,6132
2017-07-31T07:07:14.191Z,6200
2017-07-31T07:08:24.650Z,6220
2017-07-31T07:09:35.190Z,6064
2017-07-31T07:10:45.679Z,6396
2017-07-31T07:11:56.179Z,6404
2017-07-31T07:13:06.840Z,6576
2017-07-31T07:14:17.318Z,6744
2017-07-31T07:15:27.791Z,6872
2017-07-31T07:16:38.288Z,6932
2017-07-31T07:17:48.800Z,6568
2017-07-31T07:18:59.282Z,6052
2017-07-31T07:20:09.770Z,5668
2017-07-31T07:21:20.249Z,5640
2017-07-31T07:22:30.278Z,5316
2017-07-31T07:23:40.741Z,5464
2017-07-31T07:24:51.272Z,5712
2017-07-31T07:26:01.735Z,5748
2017-07-31T07:27:11.983Z,5684
2017-07-31T07:28:22.665Z,5760
2017-07-31T07:29:32.678Z,5848
2017-07-31T07:30:43.195Z,5852
2017-07-31T07:31:53.476Z,5772
2017-07-31T07:33:03.975Z,5784
2017-07-31T07:34:14.437Z,5932
2017-07-31T07:35:24.929Z,6176
2017-07-31T07:36:35.644Z,6144
2017-07-31T07:37:46.108Z,6152
2017-07-31T07:38:56.596Z,6200
2017-07-31T07:40:07.129Z,6108
2017-07-31T07:41:17.644Z,5960
2017-07-31T07:42:27.754Z,5592
2017-07-31T07:43:38.524Z,6240
2017-07-31T07:44:48.687Z,6452
2017-07-31T07:45:59.174Z,6640
2017-07-31T07:47:09.677Z,6808
2017-07-31T07:48:20.510Z,6860
2017-07-31T07:49:31.223Z,6884
2017-07-31T07:50:41.737Z,7120
2017-07-31T07:51:52.469Z,7156
2017-07-31T07:53:03.150Z,7144
2017-07-31T07:54:13.884Z,7148
2017-07-31T07:55:24.484Z,7244
2017-07-31T07:56:35.058Z,7376
2017-07-31T07:57:45.560Z,7660
2017-07-31T07:58:56.055Z,7800
2017-07-31T08:00:06.809Z,7724
2017-07-31T08:01:17.323Z,7764
2017-07-31T08:02:27.802Z,7300
2017-07-31T08:03:37.902Z,7320
2017-07-31T08:04:48.393Z,7500
2017-07-31T08:05:59.129Z,8012
2017-07-31T08:07:09.660Z,8304
2017-07-31T08:08:20.389Z,8344
2017-07-31T08:09:30.908Z,8352
2017-07-31T08:10:41.378Z,8456
2017-07-31T08:11:52.113Z,8108
2017-07-31T08:13:02.758Z,7140
2017-07-31T08:14:13.262Z,8360
2017-07-31T08:15:23.890Z,8364
2017-07-31T08:16:34.249Z,8164
2017-07-31T08:17:44.996Z,7752
2017-07-31T08:18:56.457Z,8520
2017-07-31T08:20:06.967Z,8624
2017-07-31T08:21:17.480Z,8552
2017-07-31T08:22:27.507Z,8352
2017-07-31T08:23:38.261Z,8544
2017-07-31T08:24:48.797Z,8420
2017-07-31T08:25:59.541Z,8992
2017-07-31T08:27:10.027Z,9284
2017-07-31T08:28:20.514Z,9088
2017-07-31T08:29:31.226Z,9384
2017-07-31T08:30:41.749Z,9572
2017-07-31T08:31:52.199Z,9864
2017-07-31T08:33:02.722Z,10908
2017-07-31T08:34:13.255Z,12260
2017-07-31T08:35:24.033Z,13112
2017-07-31T08:36:34.262Z,13920
2017-07-31T08:37:44.760Z,16256
2017-07-31T08:38:55.238Z,17536
2017-07-31T08:40:05.706Z,26272
2017-07-31T08:41:16.458Z,50912
2017-07-31T08:42:26.922Z,58496
2017-07-31T08:43:37.074Z,59616
2017-07-31T08:44:47.610Z,60960
2017-07-31T08:45:58.086Z,89472
2017-07-31T08:47:08.874Z,77760
2017-07-31T08:48:19.436Z,67744
2017-07-31T08:49:29.916Z,71168
2017-07-31T08:50:40.433Z,62848
2017-07-31T08:51:50.899Z,62400
2017-07-31T08:53:01.645Z,81984
2017-07-31T08:54:12.170Z,83872
2017-07-31T08:55:22.740Z,74240
2017-07-31T08:56:33.224Z,86944
2017-07-31T08:57:43.763Z,97728
2017-07-31T08:58:54.485Z,94400
2017-07-31T09:00:04.677Z,113504
2017-07-31T09:01:15.179Z,143936
2017-07-31T09:02:25.434Z,113120
2017-07-31T09:03:35.962Z,79744
2017-07-31T09:04:46.439Z,94112
2017-07-31T09:05:56.959Z,94912
2017-07-31T09:07:07.680Z,82112
2017-07-31T09:08:18.196Z,86048
2017-07-31T09:09:28.685Z,109184
2017-07-31T09:10:39.501Z,87200
2017-07-31T09:11:49.532Z,86272
2017-07-31T09:12:59.847Z,111488
2017-07-31T09:14:10.601Z,81664
2017-07-31T09:15:21.106Z,75520
2017-07-31T09:16:31.877Z,88416
2017-07-31T09:17:42.100Z,81376
2017-07-31T09:18:52.750Z,83072
2017-07-31T09:20:03.271Z,89824
2017-07-31T09:21:13.970Z,99488
2017-07-31T09:22:24.752Z,97440
2017-07-31T09:23:35.262Z,93024
2017-07-31T09:24:45.798Z,82720
2017-07-31T09:25:55.878Z,95008
2017-07-31T09:27:06.100Z,106272
2017-07-31T09:28:16.836Z,90720
2017-07-31T09:29:27.326Z,89120
2017-07-31T09:30:37.871Z,116992
2017-07-31T09:31:48.373Z,106816
2017-07-31T09:32:58.865Z,77120
2017-07-31T09:34:09.675Z,74848
2017-07-31T09:35:20.200Z,71392
2017-07-31T09:36:30.702Z,74592
2017-07-31T09:37:41.206Z,86656
2017-07-31T09:38:51.709Z,82048
2017-07-31T09:40:02.142Z,86560
2017-07-31T09:41:12.780Z,91296
2017-07-31T09:42:23.332Z,92864
2017-07-31T09:43:33.852Z,114976
2017-07-31T09:44:44.358Z,120928
2017-07-31T09:45:54.813Z,101248
2017-07-31T09:47:05.318Z,91424
2017-07-31T09:48:15.889Z,77248
2017-07-31T09:49:26.386Z,88256
2017-07-31T09:50:36.980Z,90240
2017-07-31T09:51:48.101Z,87840
2017-07-31T09:52:58.590Z,90656
2017-07-31T09:54:09.133Z,94112
2017-07-31T09:55:19.313Z,113472
2017-07-31T09:56:29.904Z,110432
2017-07-31T09:57:40.846Z,92704
2017-07-31T09:58:51.361Z,78336
2017-07-31T10:00:01.972Z,83712
2017-07-31T10:01:12.469Z,78880
2017-07-31T10:02:22.996Z,86816
2017-07-31T10:03:33.803Z,73440
2017-07-31T10:04:44.345Z,62528
2017-07-31T10:05:54.916Z,98880
2017-07-31T10:07:05.527Z,122048
2017-07-31T10:08:16.015Z,100000
2017-07-31T10:09:26.788Z,100672
2017-07-31T10:10:37.398Z,116064
2017-07-31T10:11:47.953Z,132064
2017-07-31T10:12:58.022Z,122304
2017-07-31T10:14:08.501Z,115104
2017-07-31T10:15:19.484Z,100864
2017-07-31T10:16:29.992Z,86624
2017-07-31T10:17:55.695Z,95264
2017-07-31T10:19:06.207Z,128160
2017-07-31T10:20:16.963Z,121408
2017-07-31T10:21:27.496Z,121088
2017-07-31T10:22:37.713Z,108512
2017-07-31T10:23:48.269Z,113152
2017-07-31T10:24:58.792Z,115712
2017-07-31T10:26:09.801Z,116224
2017-07-31T10:27:20.314Z,129152
2017-07-31T10:28:30.518Z,127616
2017-07-31T10:29:41.065Z,111712
2017-07-31T10:30:51.310Z,123872
2017-07-31T10:32:02.074Z,146176
2017-07-31T10:33:12.592Z,141440
2017-07-31T10:34:23.115Z,117856
2017-07-31T10:35:33.639Z,107968
2017-07-31T10:36:44.335Z,107136
2017-07-31T10:37:55.333Z,134464
2017-07-31T10:39:05.443Z,167520
2017-07-31T10:40:15.953Z,132736
2017-07-31T10:41:26.453Z,98944
2017-07-31T10:42:36.940Z,113760
2017-07-31T10:43:47.757Z,131680
2017-07-31T10:44:58.298Z,111296
2017-07-31T10:46:08.797Z,93536
2017-07-31T10:47:19.451Z,113152
2017-07-31T10:48:30.355Z,127648
2017-07-31T10:49:41.106Z,123648
2017-07-31T10:50:52.060Z,118560
2017-07-31T10:52:02.587Z,123136
2017-07-31T10:53:13.084Z,123712
2017-07-31T10:54:23.312Z,129344
2017-07-31T10:55:34.136Z,128096
2017-07-31T10:56:44.670Z,45088
2017-07-31T10:57:55.228Z,108960
2017-07-31T10:59:05.789Z,105408
2017-07-31T11:00:16.288Z,90848
2017-07-31T11:01:27.056Z,82080
2017-07-31T11:02:37.571Z,74912
2017-07-31T11:03:48.175Z,61440
2017-07-31T11:04:58.789Z,63808
2017-07-31T11:06:09.294Z,74528
2017-07-31T11:07:20.049Z,71392
2017-07-31T11:08:30.600Z,80032
2017-07-31T11:09:40.751Z,26784
2017-07-31T11:10:51.293Z,26112
2017-07-31T11:12:01.862Z,78848
2017-07-31T11:13:12.604Z,116576
2017-07-31T11:14:22.786Z,134944
2017-07-31T11:15:33.753Z,153664
2017-07-31T11:16:44.293Z,146944
2017-07-31T11:17:54.894Z,22112
2017-07-31T11:19:05.627Z,21440
2017-07-31T11:20:16.143Z,109856
2017-07-31T11:21:26.901Z,110400
2017-07-31T11:22:37.467Z,110688
2017-07-31T11:23:48.054Z,114976
2017-07-31T11:24:58.880Z,112672
2017-07-31T11:26:09.502Z,100608
2017-07-31T11:27:20.004Z,104064
2017-07-31T11:28:30.644Z,136064
2017-07-31T11:29:41.204Z,17408
2017-07-31T11:30:52.005Z,40064
2017-07-31T11:32:02.779Z,107008
2017-07-31T11:33:13.311Z,135648
2017-07-31T11:34:23.929Z,151264
2017-07-31T11:35:34.409Z,128544
2017-07-31T11:36:45.176Z,137536
2017-07-31T11:37:55.699Z,130688
2017-07-31T11:39:06.217Z,128288
2017-07-31T11:40:16.788Z,129600
2017-07-31T11:41:27.317Z,120736
2017-07-31T11:42:38.297Z,86080
2017-07-31T11:43:48.563Z,120576
2017-07-31T11:44:59.096Z,115328
2017-07-31T11:46:09.649Z,103040
2017-07-31T11:47:20.195Z,94624
2017-07-31T11:48:30.929Z,109184
2017-07-31T11:49:41.696Z,51616
2017-07-31T11:50:52.210Z,144352
2017-07-31T11:52:02.686Z,126976
2017-07-31T11:53:13.269Z,117728
2017-07-31T11:54:24.051Z,131552
2017-07-31T11:55:34.556Z,121184
2017-07-31T11:56:45.061Z,82688
2017-07-31T11:57:55.554Z,82624
2017-07-31T11:59:06.085Z,124896
2017-07-31T12:00:16.894Z,149952
2017-07-31T12:01:27.220Z,130624
2017-07-31T12:02:37.973Z,13720
2017-07-31T12:03:48.746Z,129568
2017-07-31T12:04:59.689Z,117280
2017-07-31T12:06:10.455Z,76960
2017-07-31T12:07:21.044Z,67680
2017-07-31T12:08:31.262Z,46816
2017-07-31T12:09:41.782Z,59232
2017-07-31T12:10:52.303Z,29952
2017-07-31T12:12:03.080Z,19200
2017-07-31T12:13:13.594Z,45088
2017-07-31T12:14:24.112Z,25344
2017-07-31T12:15:34.702Z,129088
2017-07-31T12:16:45.217Z,116736
2017-07-31T12:17:56.090Z,134528
2017-07-31T12:19:06.156Z,139456
2017-07-31T12:20:16.742Z,123200
2017-07-31T12:21:27.263Z,101600
2017-07-31T12:22:37.850Z,88704
2017-07-31T12:23:48.711Z,89248
2017-07-31T12:24:58.909Z,103008
2017-07-31T12:26:09.454Z,119872
2017-07-31T12:27:19.942Z,115680
2017-07-31T12:28:30.479Z,112224
2017-07-31T12:29:41.209Z,133568
2017-07-31T12:30:51.765Z,145952
2017-07-31T12:32:02.290Z,124896
2017-07-31T12:33:12.849Z,86144
2017-07-31T12:34:23.337Z,113344
2017-07-31T12:35:34.305Z,133536
2017-07-31T12:36:44.844Z,120256
2017-07-31T12:37:55.614Z,91200
2017-07-31T12:39:06.194Z,81024
2017-07-31T12:40:16.696Z,97568
2017-07-31T12:41:27.622Z,129344
2017-07-31T12:42:38.260Z,130112
2017-07-31T12:43:48.811Z,107648
2017-07-31T12:44:59.315Z,106880
2017-07-31T12:46:10.597Z,130336
2017-07-31T12:47:21.360Z,105632
2017-07-31T12:48:31.869Z,120768
2017-07-31T12:49:42.416Z,97248
2017-07-31T12:50:53.000Z,77216
2017-07-31T12:52:03.499Z,86208
2017-07-31T12:53:14.374Z,103552
2017-07-31T12:54:24.894Z,103488
2017-07-31T12:55:35.412Z,94560
2017-07-31T12:56:45.949Z,54816
2017-07-31T12:57:56.480Z,103296
2017-07-31T12:59:07.232Z,101984
2017-07-31T13:00:17.837Z,107552
2017-07-31T13:01:28.441Z,116800
2017-07-31T13:02:38.963Z,119584
2017-07-31T13:03:49.470Z,109376
2017-07-31T13:05:00.213Z,43712
2017-07-31T13:06:10.820Z,88384
2017-07-31T13:07:21.346Z,102528
2017-07-31T13:08:31.903Z,83104
2017-07-31T13:09:42.454Z,71328
2017-07-31T13:10:53.235Z,83968
2017-07-31T13:12:03.794Z,84672
2017-07-31T13:13:14.321Z,122656
2017-07-31T13:14:24.830Z,89664
2017-07-31T13:15:35.447Z,56736
2017-07-31T13:16:46.308Z,115616
2017-07-31T13:17:56.870Z,124864
2017-07-31T13:19:07.391Z,109664
2017-07-31T13:20:17.957Z,32896
2017-07-31T13:21:28.456Z,82880
2017-07-31T13:22:39.268Z,80064
2017-07-31T13:23:49.766Z,99456
2017-07-31T13:25:00.265Z,50112
2017-07-31T13:26:10.369Z,78912
2017-07-31T13:27:20.935Z,82080
2017-07-31T13:28:31.726Z,52256
2017-07-31T13:29:42.213Z,55936
2017-07-31T13:30:52.803Z,53472
2017-07-31T13:32:03.349Z,94848
2017-07-31T13:33:13.873Z,84320
2017-07-31T13:34:24.641Z,61216
2017-07-31T13:35:35.174Z,64512
2017-07-31T13:36:45.695Z,80768
2017-07-31T13:37:55.926Z,98464
2017-07-31T13:39:06.554Z,89088
2017-07-31T13:40:17.289Z,78208
2017-07-31T13:41:27.491Z,91040
2017-07-31T13:42:38.086Z,72384
2017-07-31T13:43:48.575Z,80704
2017-07-31T13:44:59.141Z,94080
2017-07-31T13:46:10.036Z,15708
2017-07-31T13:47:20.572Z,93984
2017-07-31T13:48:31.080Z,23904
2017-07-31T13:49:41.590Z,63968
2017-07-31T13:50:52.085Z,96288
2017-07-31T13:52:02.835Z,15844
2017-07-31T13:53:13.363Z,22400
2017-07-31T13:54:23.855Z,73792
2017-07-31T13:55:34.401Z,72832
2017-07-31T13:56:45.010Z,76768
2017-07-31T13:57:55.791Z,32672
2017-07-31T13:59:06.373Z,80288
2017-07-31T14:00:16.956Z,71264
2017-07-31T14:01:27.489Z,49856
2017-07-31T14:02:38.985Z,46176
2017-07-31T14:03:50.014Z,56032
2017-07-31T14:05:00.228Z,76448
2017-07-31T14:06:10.761Z,96032
2017-07-31T14:07:21.352Z,77248
2017-07-31T14:08:32.009Z,44640
2017-07-31T14:09:42.514Z,24128
2017-07-31T14:10:53.241Z,13820
2017-07-31T14:12:03.798Z,14004
2017-07-31T14:13:14.638Z,19392
2017-07-31T14:14:25.180Z,20416
2017-07-31T14:15:36.001Z,24608
2017-07-31T14:16:46.522Z,68416
2017-07-31T14:17:57.136Z,72768
2017-07-31T14:19:07.644Z,63584
2017-07-31T14:20:18.208Z,64608
2017-07-31T14:21:28.985Z,73984
2017-07-31T14:22:39.499Z,82272
2017-07-31T14:23:50.020Z,46976
2017-07-31T14:25:00.517Z,48032
2017-07-31T14:26:11.012Z,13756
2017-07-31T14:27:21.763Z,17600
2017-07-31T14:28:32.325Z,24384
2017-07-31T14:29:42.816Z,48704
2017-07-31T14:30:53.028Z,32064
2017-07-31T14:32:03.515Z,15128
2017-07-31T14:33:13.999Z,18656
2017-07-31T14:34:24.704Z,48096
2017-07-31T14:35:35.192Z,20416
2017-07-31T14:36:45.732Z,16512
2017-07-31T14:37:56.298Z,16800
2017-07-31T14:39:07.071Z,17056
2017-07-31T14:40:17.223Z,20544
2017-07-31T14:41:27.429Z,21408
2017-07-31T14:42:38.960Z,22912
2017-07-31T14:43:49.472Z,35200
2017-07-31T14:45:00.242Z,33696
2017-07-31T14:46:10.835Z,31008
2017-07-31T14:47:21.330Z,34464
2017-07-31T14:48:31.954Z,29184
2017-07-31T14:49:42.518Z,35264
2017-07-31T14:50:53.299Z,17184
2017-07-31T14:52:03.815Z,16576
2017-07-31T14:53:14.358Z,17664
2017-07-31T14:54:24.404Z,23296
2017-07-31T14:55:34.673Z,17120
2017-07-31T14:56:45.498Z,16000
2017-07-31T14:57:56.002Z,14656
2017-07-31T14:59:06.753Z,13436
2017-07-31T15:00:17.258Z,13764
2017-07-31T15:01:27.774Z,17888
2017-07-31T15:02:38.543Z,27360
2017-07-31T15:03:49.118Z,22336
2017-07-31T15:04:59.653Z,26176
2017-07-31T15:06:10.303Z,21248
2017-07-31T15:07:20.832Z,17056
2017-07-31T15:08:31.279Z,15044
2017-07-31T15:09:42.783Z,13476
2017-07-31T15:10:53.327Z,13032
2017-07-31T15:12:03.827Z,15520
2017-07-31T15:13:14.507Z,14300
2017-07-31T15:14:25.173Z,14208
2017-07-31T15:15:35.585Z,13940
2017-07-31T15:16:46.136Z,16992
2017-07-31T15:17:56.643Z,20544
2017-07-31T15:19:07.135Z,16480
2017-07-31T15:20:17.895Z,18656
2017-07-31T15:21:28.430Z,33888
2017-07-31T15:22:38.976Z,57952
2017-07-31T15:23:49.463Z,44192
2017-07-31T15:24:59.974Z,31392
2017-07-31T15:26:10.432Z,24096
2017-07-31T15:27:20.933Z,23296
2017-07-31T15:28:31.484Z,18592
2017-07-31T15:29:42.002Z,21472
2017-07-31T15:30:52.534Z,22944
2017-07-31T15:32:03.274Z,23168
2017-07-31T15:33:13.777Z,22080
2017-07-31T15:34:24.302Z,20896
2017-07-31T15:35:34.830Z,21344
2017-07-31T15:36:45.349Z,20544
2017-07-31T15:37:56.185Z,18336
2017-07-31T15:39:06.741Z,16480
2017-07-31T15:40:17.231Z,13816
2017-07-31T15:41:27.752Z,13508
2017-07-31T15:42:38.047Z,12476
2017-07-31T15:43:48.790Z,12656
2017-07-31T15:44:59.268Z,13432
2017-07-31T15:46:09.822Z,13740
2017-07-31T15:47:20.298Z,13764
2017-07-31T15:48:30.874Z,12984
2017-07-31T15:49:41.612Z,13080
2017-07-31T15:50:51.678Z,11876